createdAt,value
2018-05-09T00:01:47.184Z,99.90
2018-05-09T00:04:15.212Z,99.90
2018-05-09T00:06:43.228Z,99.90
2018-05-09T00:09:10.675Z,99.90
2018-05-09T00:11:38.759Z,99.90
2018-05-09T00:14:06.304Z,99.90
2018-05-09T00:16:34.949Z,99.90
2018-05-09T00:19:02.822Z,99.90
2018-05-09T00:21:30.253Z,99.90
2018-05-09T00:23:58.499Z,99.90
2018-05-09T00:26:25.955Z,99.90
2018-05-09T00:28:54.771Z,99.90
2018-05-09T00:31:23.036Z,99.90
2018-05-09T00:33:50.476Z,99.90
2018-05-09T00:36:17.932Z,99.90
2018-05-09T00:38:45.405Z,99.90
2018-05-09T00:41:12.856Z,99.90
2018-05-09T00:43:40.344Z,99.90
2018-05-09T00:46:08.563Z,99.90
2018-05-09T00:48:36.129Z,99.90
2018-05-09T00:51:03.581Z,99.90
2018-05-09T00:53:31.604Z,99.90
2018-05-09T00:55:59.328Z,99.90
2018-05-09T00:58:27.347Z,99.90
2018-05-09T01:00:54.856Z,99.90
2018-05-09T01:03:22.682Z,99.90
2018-05-09T01:05:52.904Z,99.90
2018-05-09T01:08:20.348Z,99.90
2018-05-09T01:10:47.808Z,99.90
2018-05-09T01:13:15.248Z,99.90
2018-05-09T01:15:43.472Z,99.90
2018-05-09T01:18:11.353Z,99.90
2018-05-09T01:20:38.913Z,99.90
2018-05-09T01:23:06.376Z,99.90
2018-05-09T01:25:33.827Z,99.90
2018-05-09T01:28:01.434Z,99.90
2018-05-09T01:30:28.952Z,99.90
2018-05-09T01:32:56.405Z,99.90
2018-05-09T01:35:23.864Z,99.90
2018-05-09T01:37:51.311Z,99.90
2018-05-09T01:40:18.768Z,99.90
2018-05-09T01:42:46.235Z,99.90
2018-05-09T01:45:13.695Z,99.90
2018-05-09T01:47:41.148Z,99.90
2018-05-09T01:50:09.502Z,99.90
2018-05-09T01:52:37.039Z,99.90
2018-05-09T01:55:06.416Z,99.90
2018-05-09T01:57:35.480Z,99.90
2018-05-09T02:00:02.938Z,99.90
2018-05-09T02:02:30.385Z,99.90
2018-05-09T02:04:58.335Z,99.90
2018-05-09T02:07:25.786Z,99.90
2018-05-09T02:09:53.267Z,99.90
2018-05-09T02:12:21.147Z,99.90
2018-05-09T02:14:48.614Z,99.90
2018-05-09T02:17:16.064Z,99.90
2018-05-09T02:19:45.455Z,99.90
2018-05-09T02:22:12.915Z,99.90
2018-05-09T02:24:40.376Z,99.90
2018-05-09T02:27:09.351Z,99.90
2018-05-09T02:29:36.818Z,99.90
2018-05-09T02:32:04.291Z,99.90
2018-05-09T02:34:31.794Z,99.90
2018-05-09T02:36:59.241Z,99.90
2018-05-09T02:39:27.221Z,99.90
2018-05-09T02:41:54.688Z,99.90
2018-05-09T02:44:22.189Z,99.90
2018-05-09T02:46:49.776Z,99.90
2018-05-09T02:49:18.629Z,99.90
2018-05-09T02:51:46.138Z,99.90
2018-05-09T02:54:14.375Z,99.90
2018-05-09T02:56:41.915Z,99.90
2018-05-09T02:59:09.937Z,99.90
2018-05-09T03:01:37.990Z,99.90
2018-05-09T03:04:06.226Z,99.90
2018-05-09T03:06:33.696Z,99.90
2018-05-09T03:09:01.160Z,99.90
2018-05-09T03:11:29.186Z,99.90
2018-05-09T03:13:56.636Z,99.90
2018-05-09T03:16:24.085Z,99.90
2018-05-09T03:18:51.592Z,99.90
2018-05-09T03:21:19.110Z,99.90
2018-05-09T03:23:46.572Z,99.90
2018-05-09T03:26:14.089Z,99.90
2018-05-09T03:28:42.083Z,99.90
2018-05-09T03:31:10.298Z,99.90
2018-05-09T03:33:38.175Z,99.90
2018-05-09T03:36:05.642Z,99.90
2018-05-09T03:38:33.091Z,99.90
2018-05-09T03:41:00.684Z,99.90
2018-05-09T03:43:28.929Z,99.90
2018-05-09T03:45:56.401Z,99.90
2018-05-09T03:48:24.007Z,99.90
2018-05-09T03:50:51.476Z,99.90
2018-05-09T03:53:19.032Z,99.90
2018-05-09T03:55:47.361Z,99.90
2018-05-09T03:58:14.811Z,99.90
2018-05-09T04:00:42.274Z,99.90
2018-05-09T04:03:22.320Z,99.90
2018-05-09T04:06:01.672Z,99.90
2018-05-09T04:08:42.389Z,99.90
2018-05-09T04:11:09.863Z,99.90
2018-05-09T04:13:39.468Z,99.90
2018-05-09T04:16:06.927Z,99.90
2018-05-09T04:18:34.384Z,99.90
2018-05-09T04:21:01.849Z,99.90
2018-05-09T04:23:30.676Z,99.90
2018-05-09T04:25:58.909Z,99.90
2018-05-09T04:28:26.846Z,99.90
2018-05-09T04:30:54.314Z,99.90
2018-05-09T04:33:21.768Z,99.90
2018-05-09T04:35:49.988Z,99.90
2018-05-09T04:38:17.527Z,99.90
2018-05-09T04:40:45.084Z,99.90
2018-05-09T04:43:13.411Z,99.90
2018-05-09T04:45:40.923Z,99.90
2018-05-09T04:48:08.385Z,99.90
2018-05-09T04:50:35.835Z,99.90
2018-05-09T04:53:03.832Z,99.90
2018-05-09T04:55:32.299Z,99.90
2018-05-09T04:58:00.487Z,99.90
2018-05-09T05:00:28.707Z,99.90
2018-05-09T05:02:56.160Z,99.90
2018-05-09T05:05:23.612Z,99.90
2018-05-09T05:07:51.073Z,99.90
2018-05-09T05:10:18.963Z,99.90
2018-05-09T05:12:46.943Z,99.90
2018-05-09T05:15:14.878Z,99.90
2018-05-09T05:17:42.597Z,99.90
2018-05-09T05:20:10.059Z,99.90
2018-05-09T05:22:38.272Z,99.90
2018-05-09T05:25:05.785Z,99.90
2018-05-09T05:27:33.324Z,99.90
2018-05-09T05:30:00.783Z,99.90
2018-05-09T05:32:28.249Z,99.90
2018-05-09T05:34:57.232Z,97.80
2018-05-09T05:37:24.691Z,97.80
2018-05-09T05:39:52.138Z,96.90
2018-05-09T05:42:19.607Z,95.70
2018-05-09T05:44:47.072Z,94.60
2018-05-09T05:47:14.643Z,93.10
2018-05-09T05:49:42.111Z,92.00
2018-05-09T05:52:10.371Z,90.50
2018-05-09T05:54:37.865Z,90.50
2018-05-09T05:57:05.322Z,88.90
2018-05-09T05:59:32.905Z,86.10
2018-05-09T06:02:00.391Z,82.40
2018-05-09T06:04:27.845Z,80.70
2018-05-09T06:06:55.319Z,79.60
2018-05-09T06:09:23.577Z,78.50
2018-05-09T06:11:51.037Z,77.60
2018-05-09T06:14:18.489Z,79.00
2018-05-09T06:16:45.956Z,78.20
2018-05-09T06:19:13.408Z,77.10
2018-05-09T06:21:40.874Z,78.50
2018-05-09T06:24:08.454Z,77.20
2018-05-09T06:26:35.816Z,76.70
2018-05-09T06:29:03.300Z,77.20
2018-05-09T06:31:30.794Z,77.20
2018-05-09T06:33:58.242Z,77.20
2018-05-09T06:36:25.688Z,77.30
2018-05-09T06:38:53.155Z,77.10
2018-05-09T06:41:20.620Z,78.10
2018-05-09T06:43:48.138Z,79.10
2018-05-09T06:46:15.638Z,78.80
2018-05-09T06:48:43.093Z,79.10
2018-05-09T06:51:10.575Z,77.60
2018-05-09T06:53:38.115Z,76.00
2018-05-09T06:56:06.147Z,74.90
2018-05-09T06:58:33.697Z,74.40
2018-05-09T07:01:01.147Z,75.10
2018-05-09T07:03:28.612Z,74.50
2018-05-09T07:05:56.136Z,74.10
2018-05-09T07:08:23.572Z,74.60
2018-05-09T07:10:51.235Z,73.80
2018-05-09T07:13:19.513Z,72.40
2018-05-09T07:15:46.969Z,72.40
2018-05-09T07:18:14.495Z,72.30
2018-05-09T07:20:42.020Z,72.70
2018-05-09T07:23:09.501Z,73.90
2018-05-09T07:25:37.694Z,71.50
2018-05-09T07:28:05.151Z,71.50
2018-05-09T07:30:32.902Z,69.20
2018-05-09T07:33:00.779Z,67.10
2018-05-09T07:35:28.312Z,67.10
2018-05-09T07:37:55.820Z,65.30
2018-05-09T07:40:23.271Z,65.60
2018-05-09T07:42:50.777Z,66.00
2018-05-09T07:45:18.432Z,66.10
2018-05-09T07:47:45.985Z,67.60
2018-05-09T07:50:13.375Z,68.50
2018-05-09T07:52:40.843Z,68.50
2018-05-09T07:55:08.324Z,68.20
2018-05-09T07:57:35.784Z,69.40
2018-05-09T08:00:03.656Z,69.10
2018-05-09T08:02:31.112Z,69.30
2018-05-09T08:04:58.564Z,70.00
2018-05-09T08:07:26.016Z,70.70
2018-05-09T08:09:53.573Z,71.00
2018-05-09T08:12:21.133Z,71.00
2018-05-09T08:14:48.579Z,69.00
2018-05-09T08:17:16.037Z,67.70
2018-05-09T08:19:43.494Z,67.10
2018-05-09T08:22:10.967Z,66.20
2018-05-09T08:24:38.520Z,66.50
2018-05-09T08:27:05.995Z,66.30
2018-05-09T08:29:33.452Z,66.00
2018-05-09T08:32:02.433Z,64.20
2018-05-09T08:34:29.888Z,64.20
2018-05-09T08:36:57.339Z,65.70
2018-05-09T08:39:24.803Z,65.20
2018-05-09T08:41:52.265Z,64.90
2018-05-09T08:44:19.711Z,63.90
2018-05-09T08:46:47.168Z,63.20
2018-05-09T08:49:15.063Z,61.80
2018-05-09T08:51:42.855Z,60.10
2018-05-09T08:54:10.307Z,60.30
2018-05-09T08:56:37.764Z,62.00
2018-05-09T08:59:05.216Z,62.70
2018-05-09T09:01:33.443Z,61.90
2018-05-09T09:04:00.904Z,61.80
2018-05-09T09:06:28.526Z,60.40
2018-05-09T09:08:55.926Z,60.00
2018-05-09T09:11:23.442Z,59.90
2018-05-09T09:13:50.881Z,59.40
2018-05-09T09:16:19.307Z,60.00
2018-05-09T09:18:46.957Z,60.00
2018-05-09T09:21:14.408Z,59.70
2018-05-09T09:23:41.855Z,59.60
2018-05-09T09:26:09.868Z,59.20
2018-05-09T09:28:37.324Z,58.30
2018-05-09T09:31:05.120Z,58.40
2018-05-09T09:33:33.356Z,57.20
2018-05-09T09:36:00.807Z,57.10
2018-05-09T09:38:28.252Z,57.00
2018-05-09T09:40:55.960Z,56.60
2018-05-09T09:43:23.872Z,57.30
2018-05-09T09:45:51.328Z,57.50
2018-05-09T09:48:18.789Z,55.80
2018-05-09T09:50:46.335Z,54.80
2018-05-09T09:53:13.699Z,54.70
2018-05-09T09:55:41.155Z,56.20
2018-05-09T09:58:08.612Z,55.40
2018-05-09T10:00:36.776Z,56.90
2018-05-09T10:03:04.385Z,56.80
2018-05-09T10:05:31.833Z,57.30
2018-05-09T10:07:59.477Z,56.70
2018-05-09T10:10:26.924Z,55.90
2018-05-09T10:12:55.288Z,58.00
2018-05-09T10:15:22.796Z,57.70
2018-05-09T10:17:50.251Z,55.20
2018-05-09T10:20:18.511Z,56.40
2018-05-09T10:22:45.964Z,56.40
2018-05-09T10:25:13.645Z,56.70
2018-05-09T10:27:41.091Z,56.50
2018-05-09T10:30:08.552Z,57.20
2018-05-09T10:32:36.004Z,57.30
2018-05-09T10:35:03.465Z,57.30
2018-05-09T10:37:30.932Z,55.90
2018-05-09T10:39:58.375Z,54.40
2018-05-09T10:42:25.838Z,53.80
2018-05-09T10:44:53.295Z,53.90
2018-05-09T10:47:20.749Z,51.60
2018-05-09T10:49:48.271Z,53.80
2018-05-09T10:52:16.605Z,53.70
2018-05-09T10:54:44.069Z,53.60
2018-05-09T10:57:11.595Z,52.70
2018-05-09T10:59:38.968Z,51.80
2018-05-09T11:02:06.426Z,50.60
2018-05-09T11:04:34.343Z,50.40
2018-05-09T11:07:01.843Z,52.60
2018-05-09T11:09:29.292Z,53.80
2018-05-09T11:11:56.749Z,54.60
2018-05-09T11:14:24.740Z,54.40
2018-05-09T11:16:52.884Z,56.10
2018-05-09T11:19:20.886Z,54.90
2018-05-09T11:21:48.744Z,54.10
2018-05-09T11:24:16.285Z,53.40
2018-05-09T11:26:43.635Z,53.00
2018-05-09T11:29:11.118Z,52.90
2018-05-09T11:31:38.616Z,51.20
2018-05-09T11:34:06.140Z,51.00
2018-05-09T11:36:33.593Z,50.60
2018-05-09T11:39:01.117Z,50.80
2018-05-09T11:41:28.569Z,51.30
2018-05-09T11:43:56.976Z,52.40
2018-05-09T11:46:24.835Z,55.40
2018-05-09T11:48:52.298Z,54.60
2018-05-09T11:51:19.747Z,53.20
2018-05-09T11:53:47.214Z,53.00
2018-05-09T11:56:14.679Z,53.00
2018-05-09T11:58:42.134Z,53.50
2018-05-09T12:01:09.578Z,52.80
2018-05-09T12:03:37.036Z,50.80
2018-05-09T12:06:04.501Z,52.20
2018-05-09T12:08:31.951Z,53.50
2018-05-09T12:10:59.403Z,54.90
2018-05-09T12:13:26.858Z,55.50
2018-05-09T12:15:54.316Z,56.90
2018-05-09T12:18:22.506Z,56.90
2018-05-09T12:20:49.947Z,56.40
2018-05-09T12:23:18.604Z,57.20
2018-05-09T12:25:46.135Z,57.20
2018-05-09T12:28:14.347Z,57.10
2018-05-09T12:30:41.815Z,57.10
2018-05-09T12:33:09.281Z,56.60
2018-05-09T12:35:36.821Z,54.80
2018-05-09T12:38:04.416Z,54.80
2018-05-09T12:40:31.881Z,53.80
2018-05-09T12:42:59.905Z,53.80
2018-05-09T12:45:27.368Z,52.50
2018-05-09T12:47:54.826Z,54.70
2018-05-09T12:50:22.286Z,54.80
2018-05-09T12:52:49.787Z,55.00
2018-05-09T12:55:17.856Z,55.00
2018-05-09T12:57:45.301Z,56.00
2018-05-09T13:00:12.770Z,58.10
2018-05-09T13:02:40.223Z,57.70
2018-05-09T13:05:07.686Z,60.70
2018-05-09T13:07:35.144Z,58.80
2018-05-09T13:10:03.408Z,57.10
2018-05-09T13:12:30.972Z,55.90
2018-05-09T13:14:58.424Z,55.40
2018-05-09T13:17:26.649Z,53.80
2018-05-09T13:19:54.096Z,53.80
2018-05-09T13:22:21.617Z,54.60
2018-05-09T13:24:49.076Z,53.80
2018-05-09T13:27:16.533Z,55.20
2018-05-09T13:29:44.548Z,55.70
2018-05-09T13:32:12.058Z,54.20
2018-05-09T13:34:39.521Z,52.90
2018-05-09T13:37:07.305Z,52.00
2018-05-09T13:39:35.574Z,52.50
2018-05-09T13:42:03.046Z,52.50
2018-05-09T13:44:31.358Z,53.50
2018-05-09T13:46:59.317Z,53.50
2018-05-09T13:49:27.251Z,56.20
2018-05-09T13:51:55.737Z,56.70
2018-05-09T13:54:24.375Z,54.40
2018-05-09T13:56:51.909Z,54.30
2018-05-09T13:59:19.449Z,54.80
2018-05-09T14:01:47.718Z,56.80
2018-05-09T14:04:16.053Z,57.80
2018-05-09T14:06:43.555Z,57.60
2018-05-09T14:09:11.857Z,58.10
2018-05-09T14:11:39.826Z,58.20
2018-05-09T14:14:07.276Z,56.70
2018-05-09T14:16:34.741Z,55.00
2018-05-09T14:19:02.757Z,54.10
2018-05-09T14:21:30.934Z,52.50
2018-05-09T14:23:58.423Z,50.50
2018-05-09T14:26:27.128Z,48.70
2018-05-09T14:28:54.575Z,48.70
2018-05-09T14:31:22.065Z,48.30
2018-05-09T14:33:49.532Z,47.80
2018-05-09T14:36:16.986Z,46.80
2018-05-09T14:38:44.624Z,46.10
2018-05-09T14:41:12.161Z,45.90
2018-05-09T14:43:40.516Z,43.30
2018-05-09T14:46:08.034Z,43.30
2018-05-09T14:48:35.527Z,42.80
2018-05-09T14:51:03.017Z,44.00
2018-05-09T14:53:30.487Z,41.90
2018-05-09T14:55:58.232Z,41.70
2018-05-09T14:58:27.196Z,42.30
2018-05-09T15:00:54.687Z,42.20
2018-05-09T15:03:23.503Z,40.60
2018-05-09T15:05:50.976Z,40.60
2018-05-09T15:08:18.454Z,40.00
2018-05-09T15:10:46.341Z,40.70
2018-05-09T15:13:14.564Z,42.90
2018-05-09T15:15:43.420Z,42.70
2018-05-09T15:18:11.639Z,41.70
2018-05-09T15:20:39.111Z,41.60
2018-05-09T15:23:06.576Z,42.10
2018-05-09T15:25:34.176Z,43.00
2018-05-09T15:28:01.984Z,43.70
2018-05-09T15:30:29.462Z,46.40
2018-05-09T15:32:57.048Z,49.00
2018-05-09T15:35:24.448Z,48.20
2018-05-09T15:37:51.932Z,49.70
2018-05-09T15:40:19.374Z,52.00
2018-05-09T15:42:46.840Z,53.00
2018-05-09T15:45:14.292Z,54.30
2018-05-09T15:47:41.752Z,53.60
2018-05-09T15:50:09.306Z,54.00
2018-05-09T15:52:37.501Z,51.90
2018-05-09T15:55:04.938Z,51.90
2018-05-09T15:57:32.404Z,47.80
2018-05-09T16:00:01.497Z,45.80
2018-05-09T16:02:31.616Z,44.70
2018-05-09T16:04:59.111Z,45.40
2018-05-09T16:07:27.359Z,44.40
2018-05-09T16:09:54.808Z,44.40
2018-05-09T16:12:24.883Z,44.40
2018-05-09T16:14:52.350Z,43.40
2018-05-09T16:17:19.804Z,42.80
2018-05-09T16:19:47.832Z,40.80
2018-05-09T16:22:15.307Z,40.10
2018-05-09T16:24:43.284Z,39.50
2018-05-09T16:27:10.735Z,38.80
2018-05-09T16:29:38.204Z,38.40
2018-05-09T16:32:05.724Z,37.90
2018-05-09T16:34:33.167Z,38.40
2018-05-09T16:37:00.634Z,38.50
2018-05-09T16:39:28.085Z,40.60
2018-05-09T16:41:55.573Z,42.80
2018-05-09T16:44:23.800Z,45.40
2018-05-09T16:46:51.256Z,45.30
2018-05-09T16:49:18.947Z,45.50
2018-05-09T16:51:46.750Z,45.40
2018-05-09T16:54:14.211Z,44.30
2018-05-09T16:56:41.695Z,44.50
2018-05-09T16:59:10.001Z,43.00
2018-05-09T17:01:37.456Z,43.70
2018-05-09T17:04:04.908Z,43.50
2018-05-09T17:06:32.364Z,43.60
2018-05-09T17:08:59.896Z,43.40
2018-05-09T17:11:27.668Z,43.40
2018-05-09T17:13:55.155Z,42.20
2018-05-09T17:16:23.383Z,41.40
2018-05-09T17:18:50.859Z,41.40
2018-05-09T17:21:34.183Z,42.20
2018-05-09T17:24:01.681Z,42.80
2018-05-09T17:26:30.649Z,43.90
2018-05-09T17:28:58.109Z,44.10
2018-05-09T17:31:26.363Z,45.00
2018-05-09T17:33:53.815Z,46.30
2018-05-09T17:36:21.362Z,47.70
2018-05-09T17:38:49.028Z,48.70
2018-05-09T17:41:16.468Z,49.30
2018-05-09T17:43:46.607Z,50.70
2018-05-09T17:46:14.621Z,51.00
2018-05-09T17:48:48.574Z,52.00
2018-05-09T17:51:16.020Z,52.90
2018-05-09T17:53:44.249Z,53.50
2018-05-09T17:56:14.136Z,53.30
2018-05-09T17:58:41.667Z,54.60
2018-05-09T18:01:09.924Z,55.30
2018-05-09T18:03:38.153Z,59.90
2018-05-09T18:06:06.144Z,60.00
2018-05-09T18:08:33.756Z,60.70
2018-05-09T18:11:02.520Z,61.80
2018-05-09T18:13:31.300Z,62.70
2018-05-09T18:15:58.774Z,62.30
2018-05-09T18:18:27.021Z,65.20
2018-05-09T18:20:54.470Z,65.10
2018-05-09T18:23:21.927Z,66.70
2018-05-09T18:25:49.386Z,67.60
2018-05-09T18:28:17.280Z,68.50
2018-05-09T18:30:44.730Z,67.60
2018-05-09T18:33:12.225Z,68.90
2018-05-09T18:35:39.955Z,70.70
2018-05-09T18:38:07.409Z,71.40
2018-05-09T18:40:35.139Z,72.60
2018-05-09T18:43:03.176Z,74.90
2018-05-09T18:45:30.743Z,75.10
2018-05-09T18:47:58.192Z,76.20
2018-05-09T18:50:26.197Z,77.40
2018-05-09T18:52:54.153Z,78.60
2018-05-09T18:55:21.629Z,80.20
2018-05-09T18:57:49.097Z,82.00
2018-05-09T19:00:17.144Z,84.00
2018-05-09T19:02:47.041Z,86.70
2018-05-09T19:05:14.491Z,90.10
2018-05-09T19:07:42.753Z,92.10
2018-05-09T19:10:12.595Z,98.80
2018-05-09T19:12:40.358Z,98.70
2018-05-09T19:15:07.873Z,99.90
2018-05-09T19:17:36.492Z,99.90
2018-05-09T19:20:05.571Z,99.90
2018-05-09T19:22:33.781Z,99.90
2018-05-09T19:25:01.427Z,99.90
2018-05-09T19:27:28.897Z,99.90
2018-05-09T19:29:56.351Z,99.90
2018-05-09T19:32:24.383Z,99.90
2018-05-09T19:34:52.622Z,99.90
2018-05-09T19:37:20.109Z,99.90
2018-05-09T19:39:47.552Z,99.90
2018-05-09T19:42:15.552Z,99.90
2018-05-09T19:44:43.004Z,99.90
2018-05-09T19:47:11.228Z,99.90
2018-05-09T19:49:38.716Z,99.90
2018-05-09T19:52:06.160Z,99.90
2018-05-09T19:54:33.611Z,99.90
2018-05-09T19:57:01.509Z,99.90
2018-05-09T19:59:29.725Z,99.90
2018-05-09T20:01:57.450Z,99.90
2018-05-09T20:04:25.677Z,99.90
2018-05-09T20:06:53.132Z,99.90
2018-05-09T20:09:22.556Z,99.90
2018-05-09T20:11:50.560Z,99.90
2018-05-09T20:14:18.793Z,99.90
2018-05-09T20:16:46.243Z,99.90
2018-05-09T20:19:13.688Z,99.90
2018-05-09T20:21:41.156Z,99.90
2018-05-09T20:24:09.506Z,99.90
2018-05-09T20:26:37.280Z,99.90
2018-05-09T20:29:04.736Z,99.90
2018-05-09T20:31:49.925Z,99.90
2018-05-09T20:34:17.390Z,99.90
2018-05-09T20:36:45.608Z,99.90
2018-05-09T20:39:13.872Z,99.90
2018-05-09T20:41:41.322Z,99.90
2018-05-09T20:44:08.764Z,99.90
2018-05-09T20:46:36.269Z,99.90
2018-05-09T20:49:04.119Z,99.90
2018-05-09T20:51:44.181Z,99.90
2018-05-09T20:54:12.403Z,99.90
2018-05-09T20:56:39.856Z,99.90
2018-05-09T20:59:07.877Z,99.90
2018-05-09T21:01:47.945Z,99.90
2018-05-09T21:04:15.448Z,99.90
2018-05-09T21:06:43.339Z,99.90
2018-05-09T21:09:10.859Z,99.90
2018-05-09T21:11:39.063Z,99.90
2018-05-09T21:14:09.000Z,99.90
2018-05-09T21:16:37.253Z,99.90
2018-05-09T21:19:05.228Z,99.90
2018-05-09T21:21:33.172Z,99.90
2018-05-09T21:24:00.653Z,99.90
2018-05-09T21:26:28.110Z,99.90
2018-05-09T21:28:56.168Z,99.90
2018-05-09T21:31:23.629Z,99.90
2018-05-09T21:33:51.488Z,99.90
2018-05-09T21:36:18.943Z,99.90
2018-05-09T21:38:46.393Z,99.90
2018-05-09T21:41:13.859Z,99.90
2018-05-09T21:43:41.372Z,99.90
2018-05-09T21:46:11.319Z,99.90
2018-05-09T21:48:38.777Z,99.90
2018-05-09T21:51:06.293Z,99.90
2018-05-09T21:53:34.530Z,99.90
2018-05-09T21:56:01.984Z,99.90
2018-05-09T21:58:29.487Z,99.90
2018-05-09T22:00:57.695Z,99.90
2018-05-09T22:03:25.153Z,99.90
2018-05-09T22:05:52.752Z,99.90
2018-05-09T22:08:20.208Z,99.90
2018-05-09T22:10:48.543Z,99.90
2018-05-09T22:13:15.976Z,99.90
2018-05-09T22:15:43.436Z,99.90
2018-05-09T22:18:10.911Z,99.90
2018-05-09T22:20:38.393Z,99.90
2018-05-09T22:23:05.844Z,99.90
2018-05-09T22:25:33.872Z,99.90
2018-05-09T22:28:02.315Z,99.90
2018-05-09T22:30:29.979Z,99.90
2018-05-09T22:32:58.373Z,99.90
2018-05-09T22:35:25.852Z,99.90
2018-05-09T22:37:53.632Z,99.90
2018-05-09T22:40:21.074Z,99.90
2018-05-09T22:42:48.946Z,99.90
2018-05-09T22:45:17.154Z,99.90
2018-05-09T22:47:44.603Z,99.90
2018-05-09T22:50:12.072Z,99.90
2018-05-09T22:52:39.521Z,99.90
2018-05-09T22:55:06.984Z,99.90
2018-05-09T22:57:34.436Z,99.90
2018-05-09T23:00:01.893Z,99.90
2018-05-09T23:02:29.979Z,99.90
2018-05-09T23:04:57.483Z,99.90
2018-05-09T23:07:24.883Z,99.90
2018-05-09T23:09:52.346Z,99.90
2018-05-09T23:12:19.796Z,99.90
2018-05-09T23:14:47.283Z,99.90
2018-05-09T23:17:15.204Z,99.90
2018-05-09T23:19:42.593Z,99.90
2018-05-09T23:22:10.090Z,99.90
2018-05-09T23:24:38.907Z,99.90
2018-05-09T23:27:08.856Z,99.90
2018-05-09T23:29:36.344Z,99.90
2018-05-09T23:32:04.576Z,99.90
2018-05-09T23:34:32.188Z,99.90
2018-05-09T23:37:00.999Z,99.90
2018-05-09T23:39:28.495Z,99.90
2018-05-09T23:41:56.219Z,99.90
2018-05-09T23:44:24.127Z,99.90
2018-05-09T23:46:51.584Z,99.90
2018-05-09T23:49:19.042Z,99.90
2018-05-09T23:51:46.549Z,99.90
2018-05-09T23:54:14.937Z,99.90
2018-05-09T23:56:42.951Z,99.90
2018-05-09T23:59:10.418Z,99.90
